Main page
METAR-TAF:

METAR-TAF

Airports :

Khartoum, Sudan

Khartoum International Airport

latitude: 15-36N, longitude: 032-33E, elevation: 382 m

Current weather observation

The report was made 38 minutes ago, at 22:00 UTC
Wind 7 kt from the North/Northwest
Temperature 33°C
Humidity 7%
Pressure 1010 hPa
Visibility 10 km or more
no clouds below 1500 m and no cumulonimbus

METAR: HSSS 272200Z 33007KT CAVOK 33/M08 Q1010 NOSIG

Time: 01:38 (22:38 UTC)

Forecast

The report was made 5 hours and 38 minutes ago, at 17:00 UTC
Forecast valid from 27 at 18 UTC to 28 at 24 UTC
Wind 8 kt from the North/Northwest with gusts up to 18 kt
Visibility 10 km or more
no clouds below 1500 m and no cumulonimbus
Probability 30% :
Temporary
from 27 at 19 UTC to 27 at 23 UTC
Visibility: 5000 m

TAF: HSSS 271700Z 2718/2824 34008G18KT CAVOK PROB30 TEMPO 2719/2723 5000

Weather observations and forecasts of more than 4000 airports (METAR and TAF reports).

The available stations are represented by yellow and red dots on the map.

Hover mouse over dot to see the name of the station.

Then click to see weather observations and forecasts.

To change the map : click on the green buttons with a black cross to zoom in, on the green button with a dash to zoom out, or on the green arrows for adjacent maps.


METAR-TAF: